sensor_id;sensor_type;location;lat;lon;timestamp;P1;durP1;ratioP1;P2;durP2;ratioP2
23113;SDS011;11726;50.122;8.832;2024-02-21T00:00:06;6.35;;;2.95;;
23113;SDS011;11726;50.122;8.832;2024-02-21T00:02:33;8.02;;;2.45;;
23113;SDS011;11726;50.122;8.832;2024-02-21T00:05:00;8.75;;;3.15;;
23113;SDS011;11726;50.122;8.832;2024-02-21T00:07:26;5.38;;;2.45;;
23113;SDS011;11726;50.122;8.832;2024-02-21T00:09:53;10.02;;;2.58;;
23113;SDS011;11726;50.122;8.832;2024-02-21T00:12:20;10.68;;;2.95;;
23113;SDS011;11726;50.122;8.832;2024-02-21T00:14:47;5.40;;;2.78;;
23113;SDS011;11726;50.122;8.832;2024-02-21T00:17:13;12.70;;;2.80;;
23113;SDS011;11726;50.122;8.832;2024-02-21T00:19:40;8.43;;;2.70;;
23113;SDS011;11726;50.122;8.832;2024-02-21T00:22:07;13.23;;;3.22;;
23113;SDS011;11726;50.122;8.832;2024-02-21T00:24:34;10.65;;;3.35;;
23113;SDS011;11726;50.122;8.832;2024-02-21T00:27:01;10.75;;;3.25;;
23113;SDS011;11726;50.122;8.832;2024-02-21T00:29:27;11.73;;;2.88;;
23113;SDS011;11726;50.122;8.832;2024-02-21T00:31:54;14.18;;;2.65;;
23113;SDS011;11726;50.122;8.832;2024-02-21T00:34:21;10.27;;;3.20;;
23113;SDS011;11726;50.122;8.832;2024-02-21T00:36:48;6.20;;;2.80;;
23113;SDS011;11726;50.122;8.832;2024-02-21T00:39:15;7.57;;;2.80;;
23113;SDS011;11726;50.122;8.832;2024-02-21T00:41:42;13.50;;;3.40;;
23113;SDS011;11726;50.122;8.832;2024-02-21T00:44:09;11.80;;;3.63;;
23113;SDS011;11726;50.122;8.832;2024-02-21T00:46:36;7.88;;;2.90;;
23113;SDS011;11726;50.122;8.832;2024-02-21T00:49:05;9.68;;;3.63;;
23113;SDS011;11726;50.122;8.832;2024-02-21T00:51:31;15.88;;;3.78;;
23113;SDS011;11726;50.122;8.832;2024-02-21T00:53:58;15.05;;;3.55;;
23113;SDS011;11726;50.122;8.832;2024-02-21T00:56:25;8.80;;;3.60;;
23113;SDS011;11726;50.122;8.832;2024-02-21T00:58:51;14.90;;;3.50;;
23113;SDS011;11726;50.122;8.832;2024-02-21T01:01:24;11.73;;;3.63;;
23113;SDS011;11726;50.122;8.832;2024-02-21T01:03:52;19.15;;;3.60;;
23113;SDS011;11726;50.122;8.832;2024-02-21T01:06:19;11.70;;;3.72;;
23113;SDS011;11726;50.122;8.832;2024-02-21T01:08:47;15.35;;;3.65;;
23113;SDS011;11726;50.122;8.832;2024-02-21T01:11:14;12.52;;;3.33;;
23113;SDS011;11726;50.122;8.832;2024-02-21T01:13:42;6.97;;;3.40;;
23113;SDS011;11726;50.122;8.832;2024-02-21T01:16:09;10.23;;;3.90;;
23113;SDS011;11726;50.122;8.832;2024-02-21T01:18:39;10.70;;;4.25;;
23113;SDS011;11726;50.122;8.832;2024-02-21T01:21:07;8.55;;;3.30;;
23113;SDS011;11726;50.122;8.832;2024-02-21T01:23:34;11.82;;;4.00;;
23113;SDS011;11726;50.122;8.832;2024-02-21T01:26:02;8.50;;;3.85;;
23113;SDS011;11726;50.122;8.832;2024-02-21T01:28:34;8.07;;;3.72;;
23113;SDS011;11726;50.122;8.832;2024-02-21T01:31:01;10.45;;;3.80;;
23113;SDS011;11726;50.122;8.832;2024-02-21T01:33:29;11.50;;;3.58;;
23113;SDS011;11726;50.122;8.832;2024-02-21T01:36:03;12.75;;;3.65;;
23113;SDS011;11726;50.122;8.832;2024-02-21T01:38:33;6.47;;;3.25;;
23113;SDS011;11726;50.122;8.832;2024-02-21T01:40:59;10.02;;;4.40;;
23113;SDS011;11726;50.122;8.832;2024-02-21T01:43:26;12.90;;;3.83;;
23113;SDS011;11726;50.122;8.832;2024-02-21T01:45:54;13.55;;;3.80;;
23113;SDS011;11726;50.122;8.832;2024-02-21T01:48:22;8.27;;;3.35;;
23113;SDS011;11726;50.122;8.832;2024-02-21T01:50:50;14.00;;;4.10;;
23113;SDS011;11726;50.122;8.832;2024-02-21T01:53:26;10.57;;;3.70;;
23113;SDS011;11726;50.122;8.832;2024-02-21T01:56:00;14.52;;;3.90;;
23113;SDS011;11726;50.122;8.832;2024-02-21T01:58:28;13.88;;;3.75;;
23113;SDS011;11726;50.122;8.832;2024-02-21T02:00:56;12.63;;;4.13;;
23113;SDS011;11726;50.122;8.832;2024-02-21T02:03:24;11.00;;;3.92;;
23113;SDS011;11726;50.122;8.832;2024-02-21T02:05:52;9.73;;;4.18;;
23113;SDS011;11726;50.122;8.832;2024-02-21T02:08:19;10.77;;;3.47;;
23113;SDS011;11726;50.122;8.832;2024-02-21T02:10:48;11.38;;;4.38;;
23113;SDS011;11726;50.122;8.832;2024-02-21T02:13:15;14.73;;;4.38;;
23113;SDS011;11726;50.122;8.832;2024-02-21T02:15:43;13.10;;;4.47;;
23113;SDS011;11726;50.122;8.832;2024-02-21T02:18:14;13.20;;;4.28;;
23113;SDS011;11726;50.122;8.832;2024-02-21T02:20:42;11.02;;;4.45;;
23113;SDS011;11726;50.122;8.832;2024-02-21T02:23:12;8.35;;;3.90;;
23113;SDS011;11726;50.122;8.832;2024-02-21T02:25:43;13.18;;;3.55;;
23113;SDS011;11726;50.122;8.832;2024-02-21T02:28:11;10.93;;;4.10;;
23113;SDS011;11726;50.122;8.832;2024-02-21T02:30:37;13.90;;;4.53;;
23113;SDS011;11726;50.122;8.832;2024-02-21T02:33:04;11.82;;;4.20;;
23113;SDS011;11726;50.122;8.832;2024-02-21T02:35:32;10.00;;;4.07;;
23113;SDS011;11726;50.122;8.832;2024-02-21T02:37:59;12.52;;;3.80;;
23113;SDS011;11726;50.122;8.832;2024-02-21T02:40:25;14.57;;;4.20;;
23113;SDS011;11726;50.122;8.832;2024-02-21T02:42:52;16.75;;;4.18;;
23113;SDS011;11726;50.122;8.832;2024-02-21T02:45:21;11.95;;;3.80;;
23113;SDS011;11726;50.122;8.832;2024-02-21T02:47:50;11.88;;;3.97;;
23113;SDS011;11726;50.122;8.832;2024-02-21T02:50:16;11.95;;;4.18;;
23113;SDS011;11726;50.122;8.832;2024-02-21T02:52:43;12.88;;;4.15;;
23113;SDS011;11726;50.122;8.832;2024-02-21T02:55:10;10.98;;;3.40;;
23113;SDS011;11726;50.122;8.832;2024-02-21T02:57:37;13.18;;;3.55;;
23113;SDS011;11726;50.122;8.832;2024-02-21T03:00:04;16.63;;;4.40;;
23113;SDS011;11726;50.122;8.832;2024-02-21T03:02:33;9.82;;;3.85;;
23113;SDS011;11726;50.122;8.832;2024-02-21T03:04:59;11.52;;;3.92;;
23113;SDS011;11726;50.122;8.832;2024-02-21T03:07:26;15.95;;;4.43;;
23113;SDS011;11726;50.122;8.832;2024-02-21T03:09:53;11.80;;;4.38;;
23113;SDS011;11726;50.122;8.832;2024-02-21T03:12:20;13.80;;;3.95;;
23113;SDS011;11726;50.122;8.832;2024-02-21T03:14:53;11.15;;;4.55;;
23113;SDS011;11726;50.122;8.832;2024-02-21T03:17:20;8.88;;;4.00;;
23113;SDS011;11726;50.122;8.832;2024-02-21T03:19:48;15.93;;;4.68;;
23113;SDS011;11726;50.122;8.832;2024-02-21T03:22:16;10.27;;;4.25;;
23113;SDS011;11726;50.122;8.832;2024-02-21T03:24:43;13.90;;;3.55;;
23113;SDS011;11726;50.122;8.832;2024-02-21T03:27:09;14.13;;;4.28;;
23113;SDS011;11726;50.122;8.832;2024-02-21T03:29:36;11.95;;;4.05;;
23113;SDS011;11726;50.122;8.832;2024-02-21T03:32:03;12.80;;;3.95;;
23113;SDS011;11726;50.122;8.832;2024-02-21T03:34:30;9.93;;;3.60;;
23113;SDS011;11726;50.122;8.832;2024-02-21T03:36:57;9.10;;;3.25;;
23113;SDS011;11726;50.122;8.832;2024-02-21T03:39:25;13.10;;;4.50;;
23113;SDS011;11726;50.122;8.832;2024-02-21T03:41:51;14.30;;;3.88;;
23113;SDS011;11726;50.122;8.832;2024-02-21T03:44:18;16.02;;;4.82;;
23113;SDS011;11726;50.122;8.832;2024-02-21T03:46:45;10.18;;;3.70;;
23113;SDS011;11726;50.122;8.832;2024-02-21T03:49:12;8.80;;;3.80;;
23113;SDS011;11726;50.122;8.832;2024-02-21T03:51:39;19.35;;;5.75;;
23113;SDS011;11726;50.122;8.832;2024-02-21T03:54:05;9.40;;;3.75;;
23113;SDS011;11726;50.122;8.832;2024-02-21T03:56:32;10.82;;;4.30;;
23113;SDS011;11726;50.122;8.832;2024-02-21T03:58:58;12.40;;;3.90;;
23113;SDS011;11726;50.122;8.832;2024-02-21T04:01:25;9.70;;;3.47;;
23113;SDS011;11726;50.122;8.832;2024-02-21T04:03:52;12.57;;;4.13;;
23113;SDS011;11726;50.122;8.832;2024-02-21T04:06:19;16.38;;;4.18;;
23113;SDS011;11726;50.122;8.832;2024-02-21T04:08:46;7.70;;;3.80;;
23113;SDS011;11726;50.122;8.832;2024-02-21T04:11:13;6.25;;;3.47;;
23113;SDS011;11726;50.122;8.832;2024-02-21T04:13:40;10.60;;;3.97;;
23113;SDS011;11726;50.122;8.832;2024-02-21T04:16:06;9.80;;;3.55;;
23113;SDS011;11726;50.122;8.832;2024-02-21T04:18:33;9.13;;;3.33;;
23113;SDS011;11726;50.122;8.832;2024-02-21T04:21:00;11.13;;;3.95;;
23113;SDS011;11726;50.122;8.832;2024-02-21T04:23:27;14.05;;;3.70;;
23113;SDS011;11726;50.122;8.832;2024-02-21T04:25:53;13.02;;;3.55;;
23113;SDS011;11726;50.122;8.832;2024-02-21T04:28:20;10.13;;;3.95;;
23113;SDS011;11726;50.122;8.832;2024-02-21T04:30:47;8.75;;;3.55;;
23113;SDS011;11726;50.122;8.832;2024-02-21T04:33:13;12.15;;;4.20;;
23113;SDS011;11726;50.122;8.832;2024-02-21T04:35:40;12.80;;;4.05;;
23113;SDS011;11726;50.122;8.832;2024-02-21T04:38:07;9.40;;;3.50;;
23113;SDS011;11726;50.122;8.832;2024-02-21T04:40:34;15.77;;;4.68;;
23113;SDS011;11726;50.122;8.832;2024-02-21T04:43:00;11.45;;;3.85;;
23113;SDS011;11726;50.122;8.832;2024-02-21T04:45:27;12.35;;;3.72;;
23113;SDS011;11726;50.122;8.832;2024-02-21T04:47:54;14.20;;;4.28;;
23113;SDS011;11726;50.122;8.832;2024-02-21T04:50:20;9.90;;;3.70;;
23113;SDS011;11726;50.122;8.832;2024-02-21T04:52:47;16.65;;;4.90;;
23113;SDS011;11726;50.122;8.832;2024-02-21T04:55:15;12.00;;;4.40;;
23113;SDS011;11726;50.122;8.832;2024-02-21T04:57:41;12.70;;;4.63;;
23113;SDS011;11726;50.122;8.832;2024-02-21T05:00:08;10.32;;;3.85;;
23113;SDS011;11726;50.122;8.832;2024-02-21T05:02:38;9.93;;;3.97;;
23113;SDS011;11726;50.122;8.832;2024-02-21T05:05:09;19.83;;;4.18;;
23113;SDS011;11726;50.122;8.832;2024-02-21T05:07:36;14.43;;;4.15;;
23113;SDS011;11726;50.122;8.832;2024-02-21T05:10:03;7.85;;;3.33;;
23113;SDS011;11726;50.122;8.832;2024-02-21T05:12:29;12.90;;;3.70;;
23113;SDS011;11726;50.122;8.832;2024-02-21T05:14:56;16.45;;;5.80;;
23113;SDS011;11726;50.122;8.832;2024-02-21T05:17:23;10.52;;;3.90;;
23113;SDS011;11726;50.122;8.832;2024-02-21T05:19:49;10.35;;;3.28;;
23113;SDS011;11726;50.122;8.832;2024-02-21T05:22:16;15.00;;;3.65;;
23113;SDS011;11726;50.122;8.832;2024-02-21T05:24:43;10.63;;;3.10;;
23113;SDS011;11726;50.122;8.832;2024-02-21T05:27:10;11.30;;;3.15;;
23113;SDS011;11726;50.122;8.832;2024-02-21T05:29:36;11.73;;;3.92;;
23113;SDS011;11726;50.122;8.832;2024-02-21T05:32:03;10.77;;;3.22;;
23113;SDS011;11726;50.122;8.832;2024-02-21T05:34:30;8.18;;;3.45;;
23113;SDS011;11726;50.122;8.832;2024-02-21T05:36:57;8.80;;;3.28;;
23113;SDS011;11726;50.122;8.832;2024-02-21T05:39:25;14.23;;;3.60;;
23113;SDS011;11726;50.122;8.832;2024-02-21T05:41:52;7.88;;;3.60;;
23113;SDS011;11726;50.122;8.832;2024-02-21T05:44:19;11.52;;;3.95;;
23113;SDS011;11726;50.122;8.832;2024-02-21T05:46:46;11.10;;;4.13;;
23113;SDS011;11726;50.122;8.832;2024-02-21T05:49:13;10.48;;;3.60;;
23113;SDS011;11726;50.122;8.832;2024-02-21T05:51:40;8.35;;;3.25;;
23113;SDS011;11726;50.122;8.832;2024-02-21T05:54:07;11.48;;;3.53;;
23113;SDS011;11726;50.122;8.832;2024-02-21T05:56:34;11.57;;;3.60;;
23113;SDS011;11726;50.122;8.832;2024-02-21T05:59:00;10.45;;;4.47;;
23113;SDS011;11726;50.122;8.832;2024-02-21T06:01:27;12.45;;;4.25;;
23113;SDS011;11726;50.122;8.832;2024-02-21T06:03:54;9.20;;;3.67;;
23113;SDS011;11726;50.122;8.832;2024-02-21T06:06:21;16.52;;;4.50;;
23113;SDS011;11726;50.122;8.832;2024-02-21T06:08:48;7.55;;;3.38;;
23113;SDS011;11726;50.122;8.832;2024-02-21T06:11:15;8.82;;;3.78;;
23113;SDS011;11726;50.122;8.832;2024-02-21T06:13:42;9.65;;;3.33;;
23113;SDS011;11726;50.122;8.832;2024-02-21T06:16:08;10.07;;;4.43;;
23113;SDS011;11726;50.122;8.832;2024-02-21T06:18:35;13.00;;;3.53;;
23113;SDS011;11726;50.122;8.832;2024-02-21T06:21:04;9.85;;;3.55;;
23113;SDS011;11726;50.122;8.832;2024-02-21T06:23:31;8.93;;;4.00;;
23113;SDS011;11726;50.122;8.832;2024-02-21T06:25:57;14.32;;;5.30;;
23113;SDS011;11726;50.122;8.832;2024-02-21T06:28:24;8.55;;;3.63;;
23113;SDS011;11726;50.122;8.832;2024-02-21T06:30:51;7.32;;;3.22;;
23113;SDS011;11726;50.122;8.832;2024-02-21T06:33:18;10.10;;;4.13;;
23113;SDS011;11726;50.122;8.832;2024-02-21T06:35:49;13.65;;;5.25;;
23113;SDS011;11726;50.122;8.832;2024-02-21T06:38:18;7.28;;;3.45;;
23113;SDS011;11726;50.122;8.832;2024-02-21T06:40:45;14.32;;;4.78;;
23113;SDS011;11726;50.122;8.832;2024-02-21T06:43:17;11.77;;;3.97;;
23113;SDS011;11726;50.122;8.832;2024-02-21T06:45:45;8.73;;;3.80;;
23113;SDS011;11726;50.122;8.832;2024-02-21T06:48:17;12.25;;;3.67;;
23113;SDS011;11726;50.122;8.832;2024-02-21T06:50:45;10.00;;;3.67;;
23113;SDS011;11726;50.122;8.832;2024-02-21T06:53:12;14.75;;;3.53;;
23113;SDS011;11726;50.122;8.832;2024-02-21T06:55:39;12.02;;;3.70;;
23113;SDS011;11726;50.122;8.832;2024-02-21T06:58:05;11.05;;;3.75;;
23113;SDS011;11726;50.122;8.832;2024-02-21T07:00:34;9.30;;;4.03;;
23113;SDS011;11726;50.122;8.832;2024-02-21T07:03:01;15.60;;;5.05;;
23113;SDS011;11726;50.122;8.832;2024-02-21T07:05:29;14.73;;;3.83;;
23113;SDS011;11726;50.122;8.832;2024-02-21T07:07:56;12.13;;;4.25;;
23113;SDS011;11726;50.122;8.832;2024-02-21T07:10:22;13.07;;;4.32;;
23113;SDS011;11726;50.122;8.832;2024-02-21T07:12:49;9.45;;;3.83;;
23113;SDS011;11726;50.122;8.832;2024-02-21T07:15:18;18.42;;;4.20;;
23113;SDS011;11726;50.122;8.832;2024-02-21T07:17:44;10.48;;;3.95;;
23113;SDS011;11726;50.122;8.832;2024-02-21T07:20:11;12.73;;;3.92;;
23113;SDS011;11726;50.122;8.832;2024-02-21T07:22:38;9.32;;;3.45;;
23113;SDS011;11726;50.122;8.832;2024-02-21T07:25:05;12.07;;;3.42;;
23113;SDS011;11726;50.122;8.832;2024-02-21T07:27:32;9.15;;;3.35;;
23113;SDS011;11726;50.122;8.832;2024-02-21T07:29:59;10.90;;;3.80;;
23113;SDS011;11726;50.122;8.832;2024-02-21T07:32:26;8.27;;;3.33;;
23113;SDS011;11726;50.122;8.832;2024-02-21T07:34:53;8.23;;;3.15;;
23113;SDS011;11726;50.122;8.832;2024-02-21T07:37:20;10.70;;;3.42;;
23113;SDS011;11726;50.122;8.832;2024-02-21T07:39:46;5.30;;;2.67;;
23113;SDS011;11726;50.122;8.832;2024-02-21T07:42:13;7.68;;;3.05;;
23113;SDS011;11726;50.122;8.832;2024-02-21T07:44:40;11.63;;;2.97;;
23113;SDS011;11726;50.122;8.832;2024-02-21T07:47:07;6.70;;;3.30;;
23113;SDS011;11726;50.122;8.832;2024-02-21T07:49:40;8.20;;;2.97;;
23113;SDS011;11726;50.122;8.832;2024-02-21T07:52:11;7.07;;;2.50;;
23113;SDS011;11726;50.122;8.832;2024-02-21T07:54:38;11.55;;;2.85;;
23113;SDS011;11726;50.122;8.832;2024-02-21T07:57:04;12.32;;;3.13;;
23113;SDS011;11726;50.122;8.832;2024-02-21T07:59:31;6.97;;;2.92;;
23113;SDS011;11726;50.122;8.832;2024-02-21T08:01:58;8.35;;;2.58;;
23113;SDS011;11726;50.122;8.832;2024-02-21T08:04:25;11.20;;;3.60;;
23113;SDS011;11726;50.122;8.832;2024-02-21T08:06:52;16.15;;;3.13;;
23113;SDS011;11726;50.122;8.832;2024-02-21T08:09:20;4.68;;;2.83;;
23113;SDS011;11726;50.122;8.832;2024-02-21T08:11:47;11.70;;;3.03;;
23113;SDS011;11726;50.122;8.832;2024-02-21T08:14:13;8.27;;;2.60;;
23113;SDS011;11726;50.122;8.832;2024-02-21T08:16:46;7.97;;;2.35;;
23113;SDS011;11726;50.122;8.832;2024-02-21T08:19:13;11.50;;;3.30;;
23113;SDS011;11726;50.122;8.832;2024-02-21T08:21:40;6.68;;;2.97;;
23113;SDS011;11726;50.122;8.832;2024-02-21T08:24:06;10.10;;;3.30;;
23113;SDS011;11726;50.122;8.832;2024-02-21T08:26:33;4.97;;;2.55;;
23113;SDS011;11726;50.122;8.832;2024-02-21T08:29:00;6.60;;;2.60;;
23113;SDS011;11726;50.122;8.832;2024-02-21T08:31:27;8.63;;;2.90;;
23113;SDS011;11726;50.122;8.832;2024-02-21T08:34:00;8.50;;;2.50;;
23113;SDS011;11726;50.122;8.832;2024-02-21T08:36:31;8.88;;;2.80;;
23113;SDS011;11726;50.122;8.832;2024-02-21T08:38:59;7.60;;;2.55;;
23113;SDS011;11726;50.122;8.832;2024-02-21T08:41:26;4.90;;;2.50;;
23113;SDS011;11726;50.122;8.832;2024-02-21T08:44:13;4.15;;;2.05;;
23113;SDS011;11726;50.122;8.832;2024-02-21T08:46:39;4.38;;;2.40;;
23113;SDS011;11726;50.122;8.832;2024-02-21T08:49:06;5.50;;;2.70;;
23113;SDS011;11726;50.122;8.832;2024-02-21T08:51:33;10.98;;;3.00;;
23113;SDS011;11726;50.122;8.832;2024-02-21T08:54:02;9.32;;;3.78;;
23113;SDS011;11726;50.122;8.832;2024-02-21T08:56:29;14.15;;;3.40;;
23113;SDS011;11726;50.122;8.832;2024-02-21T08:58:56;8.30;;;2.47;;
23113;SDS011;11726;50.122;8.832;2024-02-21T09:01:24;10.80;;;2.50;;
23113;SDS011;11726;50.122;8.832;2024-02-21T09:03:52;8.85;;;2.40;;
23113;SDS011;11726;50.122;8.832;2024-02-21T09:06:20;8.27;;;3.65;;
23113;SDS011;11726;50.122;8.832;2024-02-21T09:08:47;5.38;;;2.55;;
23113;SDS011;11726;50.122;8.832;2024-02-21T09:11:13;9.07;;;2.63;;
23113;SDS011;11726;50.122;8.832;2024-02-21T09:13:41;4.55;;;2.33;;
23113;SDS011;11726;50.122;8.832;2024-02-21T09:16:07;5.28;;;2.63;;
23113;SDS011;11726;50.122;8.832;2024-02-21T09:18:35;5.93;;;3.00;;
23113;SDS011;11726;50.122;8.832;2024-02-21T09:21:02;6.47;;;2.88;;
23113;SDS011;11726;50.122;8.832;2024-02-21T09:23:29;9.80;;;2.65;;
23113;SDS011;11726;50.122;8.832;2024-02-21T09:25:57;7.82;;;2.78;;
23113;SDS011;11726;50.122;8.832;2024-02-21T09:28:26;8.27;;;2.58;;
23113;SDS011;11726;50.122;8.832;2024-02-21T09:30:53;6.57;;;2.47;;
23113;SDS011;11726;50.122;8.832;2024-02-21T09:33:19;7.28;;;2.55;;
23113;SDS011;11726;50.122;8.832;2024-02-21T09:35:57;6.13;;;2.40;;
23113;SDS011;11726;50.122;8.832;2024-02-21T09:38:24;6.40;;;2.80;;
23113;SDS011;11726;50.122;8.832;2024-02-21T09:40:59;7.07;;;2.65;;
23113;SDS011;11726;50.122;8.832;2024-02-21T09:43:30;5.60;;;2.20;;
23113;SDS011;11726;50.122;8.832;2024-02-21T09:45:59;7.70;;;2.83;;
23113;SDS011;11726;50.122;8.832;2024-02-21T09:48:34;9.32;;;2.35;;
23113;SDS011;11726;50.122;8.832;2024-02-21T09:51:27;6.15;;;2.20;;
23113;SDS011;11726;50.122;8.832;2024-02-21T09:53:56;11.13;;;2.53;;
23113;SDS011;11726;50.122;8.832;2024-02-21T09:56:40;5.32;;;2.50;;
23113;SDS011;11726;50.122;8.832;2024-02-21T09:59:07;8.15;;;2.25;;
23113;SDS011;11726;50.122;8.832;2024-02-21T10:01:34;3.92;;;2.17;;
23113;SDS011;11726;50.122;8.832;2024-02-21T10:04:01;7.35;;;2.30;;
23113;SDS011;11726;50.122;8.832;2024-02-21T10:06:29;6.18;;;2.20;;
23113;SDS011;11726;50.122;8.832;2024-02-21T10:08:56;15.90;;;2.70;;
23113;SDS011;11726;50.122;8.832;2024-02-21T10:11:23;6.82;;;2.60;;
23113;SDS011;11726;50.122;8.832;2024-02-21T10:13:51;9.02;;;2.40;;
23113;SDS011;11726;50.122;8.832;2024-02-21T10:16:29;7.20;;;2.25;;
23113;SDS011;11726;50.122;8.832;2024-02-21T10:18:55;8.85;;;2.33;;
23113;SDS011;11726;50.122;8.832;2024-02-21T10:21:22;13.85;;;2.53;;
23113;SDS011;11726;50.122;8.832;2024-02-21T10:23:49;11.13;;;2.20;;
23113;SDS011;11726;50.122;8.832;2024-02-21T10:26:17;9.73;;;3.35;;
23113;SDS011;11726;50.122;8.832;2024-02-21T10:28:45;12.32;;;2.50;;
23113;SDS011;11726;50.122;8.832;2024-02-21T10:31:26;12.10;;;2.90;;
23113;SDS011;11726;50.122;8.832;2024-02-21T10:33:55;11.35;;;2.70;;
23113;SDS011;11726;50.122;8.832;2024-02-21T10:36:23;11.65;;;2.45;;
23113;SDS011;11726;50.122;8.832;2024-02-21T10:38:53;6.63;;;2.40;;
23113;SDS011;11726;50.122;8.832;2024-02-21T10:41:21;10.35;;;3.00;;
23113;SDS011;11726;50.122;8.832;2024-02-21T10:43:53;8.52;;;2.78;;
23113;SDS011;11726;50.122;8.832;2024-02-21T10:46:22;6.55;;;2.42;;
23113;SDS011;11726;50.122;8.832;2024-02-21T10:49:01;6.82;;;3.28;;
23113;SDS011;11726;50.122;8.832;2024-02-21T10:51:36;6.57;;;2.28;;
23113;SDS011;11726;50.122;8.832;2024-02-21T10:57:06;11.13;;;2.60;;
23113;SDS011;11726;50.122;8.832;2024-02-21T10:59:33;6.20;;;2.58;;
23113;SDS011;11726;50.122;8.832;2024-02-21T11:02:03;13.70;;;2.90;;
23113;SDS011;11726;50.122;8.832;2024-02-21T11:04:31;5.85;;;2.30;;
23113;SDS011;11726;50.122;8.832;2024-02-21T11:07:05;10.00;;;2.50;;
23113;SDS011;11726;50.122;8.832;2024-02-21T11:09:36;5.68;;;2.33;;
23113;SDS011;11726;50.122;8.832;2024-02-21T11:12:05;4.60;;;2.15;;
23113;SDS011;11726;50.122;8.832;2024-02-21T11:14:33;8.13;;;2.58;;
23113;SDS011;11726;50.122;8.832;2024-02-21T11:17:15;4.63;;;2.50;;
23113;SDS011;11726;50.122;8.832;2024-02-21T11:19:43;5.00;;;2.17;;
23113;SDS011;11726;50.122;8.832;2024-02-21T11:22:14;4.60;;;2.20;;
23113;SDS011;11726;50.122;8.832;2024-02-21T11:24:46;11.60;;;2.63;;
23113;SDS011;11726;50.122;8.832;2024-02-21T11:27:13;6.60;;;2.17;;
23113;SDS011;11726;50.122;8.832;2024-02-21T11:29:57;6.82;;;2.30;;
23113;SDS011;11726;50.122;8.832;2024-02-21T11:32:25;9.25;;;2.55;;
23113;SDS011;11726;50.122;8.832;2024-02-21T11:34:57;9.85;;;3.05;;
23113;SDS011;11726;50.122;8.832;2024-02-21T11:37:29;6.72;;;2.15;;
23113;SDS011;11726;50.122;8.832;2024-02-21T11:40:00;9.25;;;2.30;;
23113;SDS011;11726;50.122;8.832;2024-02-21T11:42:27;7.00;;;2.00;;
23113;SDS011;11726;50.122;8.832;2024-02-21T11:44:56;6.05;;;2.70;;
23113;SDS011;11726;50.122;8.832;2024-02-21T11:47:23;6.25;;;2.50;;
23113;SDS011;11726;50.122;8.832;2024-02-21T11:49:50;8.77;;;3.03;;
23113;SDS011;11726;50.122;8.832;2024-02-21T11:52:24;10.07;;;2.65;;
23113;SDS011;11726;50.122;8.832;2024-02-21T11:54:53;5.75;;;2.28;;
23113;SDS011;11726;50.122;8.832;2024-02-21T11:57:22;9.13;;;2.97;;
23113;SDS011;11726;50.122;8.832;2024-02-21T11:59:48;6.93;;;2.78;;
23113;SDS011;11726;50.122;8.832;2024-02-21T12:02:22;7.67;;;2.63;;
23113;SDS011;11726;50.122;8.832;2024-02-21T12:04:49;6.25;;;2.22;;
23113;SDS011;11726;50.122;8.832;2024-02-21T12:07:16;19.25;;;2.95;;
23113;SDS011;11726;50.122;8.832;2024-02-21T12:09:44;9.73;;;2.53;;
23113;SDS011;11726;50.122;8.832;2024-02-21T12:12:10;13.10;;;2.85;;
23113;SDS011;11726;50.122;8.832;2024-02-21T12:14:37;6.93;;;2.50;;
23113;SDS011;11726;50.122;8.832;2024-02-21T12:17:04;6.32;;;2.35;;
23113;SDS011;11726;50.122;8.832;2024-02-21T12:19:32;6.20;;;2.47;;
23113;SDS011;11726;50.122;8.832;2024-02-21T12:22:00;5.22;;;2.88;;
23113;SDS011;11726;50.122;8.832;2024-02-21T12:24:28;6.97;;;2.40;;
23113;SDS011;11726;50.122;8.832;2024-02-21T12:26:55;8.40;;;2.58;;
23113;SDS011;11726;50.122;8.832;2024-02-21T12:29:23;10.38;;;3.47;;
23113;SDS011;11726;50.122;8.832;2024-02-21T12:31:54;4.82;;;2.28;;
23113;SDS011;11726;50.122;8.832;2024-02-21T12:34:21;4.80;;;2.13;;
23113;SDS011;11726;50.122;8.832;2024-02-21T12:37:04;5.57;;;2.60;;
23113;SDS011;11726;50.122;8.832;2024-02-21T12:39:31;11.85;;;2.53;;
23113;SDS011;11726;50.122;8.832;2024-02-21T12:41:58;5.40;;;2.00;;
23113;SDS011;11726;50.122;8.832;2024-02-21T12:44:25;6.32;;;2.50;;
23113;SDS011;11726;50.122;8.832;2024-02-21T12:46:52;11.05;;;2.40;;
23113;SDS011;11726;50.122;8.832;2024-02-21T12:49:21;7.25;;;2.00;;
23113;SDS011;11726;50.122;8.832;2024-02-21T12:51:48;4.20;;;1.90;;
23113;SDS011;11726;50.122;8.832;2024-02-21T12:54:15;5.55;;;2.05;;
23113;SDS011;11726;50.122;8.832;2024-02-21T12:56:42;6.80;;;2.50;;
23113;SDS011;11726;50.122;8.832;2024-02-21T12:59:08;8.80;;;2.35;;
23113;SDS011;11726;50.122;8.832;2024-02-21T13:01:36;5.60;;;2.10;;
23113;SDS011;11726;50.122;8.832;2024-02-21T13:04:04;6.63;;;2.20;;
23113;SDS011;11726;50.122;8.832;2024-02-21T13:06:32;8.73;;;2.42;;
23113;SDS011;11726;50.122;8.832;2024-02-21T13:08:58;9.00;;;2.20;;
23113;SDS011;11726;50.122;8.832;2024-02-21T13:11:28;8.30;;;2.58;;
23113;SDS011;11726;50.122;8.832;2024-02-21T13:13:58;6.78;;;1.90;;
23113;SDS011;11726;50.122;8.832;2024-02-21T13:16:25;7.90;;;1.98;;
23113;SDS011;11726;50.122;8.832;2024-02-21T13:18:53;8.20;;;1.92;;
23113;SDS011;11726;50.122;8.832;2024-02-21T13:21:20;5.32;;;2.33;;
23113;SDS011;11726;50.122;8.832;2024-02-21T13:23:47;5.90;;;1.60;;
23113;SDS011;11726;50.122;8.832;2024-02-21T13:26:14;9.50;;;1.70;;
23113;SDS011;11726;50.122;8.832;2024-02-21T13:28:41;5.00;;;2.10;;
23113;SDS011;11726;50.122;8.832;2024-02-21T13:31:11;11.07;;;1.73;;
23113;SDS011;11726;50.122;8.832;2024-02-21T13:33:37;9.65;;;1.95;;
23113;SDS011;11726;50.122;8.832;2024-02-21T13:36:04;4.35;;;1.60;;
23113;SDS011;11726;50.122;8.832;2024-02-21T13:38:31;5.00;;;1.70;;
23113;SDS011;11726;50.122;8.832;2024-02-21T13:40:58;10.40;;;2.08;;
23113;SDS011;11726;50.122;8.832;2024-02-21T13:43:26;7.25;;;2.25;;
23113;SDS011;11726;50.122;8.832;2024-02-21T13:45:57;8.15;;;1.75;;
23113;SDS011;11726;50.122;8.832;2024-02-21T13:48:24;5.80;;;1.90;;
23113;SDS011;11726;50.122;8.832;2024-02-21T13:50:52;5.75;;;1.70;;
23113;SDS011;11726;50.122;8.832;2024-02-21T13:53:18;6.55;;;2.15;;
23113;SDS011;11726;50.122;8.832;2024-02-21T13:55:46;4.97;;;1.88;;
23113;SDS011;11726;50.122;8.832;2024-02-21T13:58:13;6.05;;;1.88;;
23113;SDS011;11726;50.122;8.832;2024-02-21T14:00:41;8.50;;;1.85;;
23113;SDS011;11726;50.122;8.832;2024-02-21T14:03:08;4.97;;;1.35;;
23113;SDS011;11726;50.122;8.832;2024-02-21T14:05:36;4.60;;;1.90;;
23113;SDS011;11726;50.122;8.832;2024-02-21T14:08:06;7.05;;;1.50;;
23113;SDS011;11726;50.122;8.832;2024-02-21T14:10:33;4.10;;;1.40;;
23113;SDS011;11726;50.122;8.832;2024-02-21T14:13:00;5.65;;;1.60;;
23113;SDS011;11726;50.122;8.832;2024-02-21T14:15:27;7.00;;;1.77;;
23113;SDS011;11726;50.122;8.832;2024-02-21T14:17:54;3.88;;;1.73;;
23113;SDS011;11726;50.122;8.832;2024-02-21T14:20:22;7.60;;;2.00;;
23113;SDS011;11726;50.122;8.832;2024-02-21T14:22:49;6.72;;;1.38;;
23113;SDS011;11726;50.122;8.832;2024-02-21T14:25:15;6.90;;;1.73;;
23113;SDS011;11726;50.122;8.832;2024-02-21T14:27:42;8.13;;;1.98;;
23113;SDS011;11726;50.122;8.832;2024-02-21T14:30:10;7.70;;;1.30;;
23113;SDS011;11726;50.122;8.832;2024-02-21T14:32:37;5.07;;;1.70;;
23113;SDS011;11726;50.122;8.832;2024-02-21T14:35:04;2.13;;;1.27;;
23113;SDS011;11726;50.122;8.832;2024-02-21T14:37:32;4.70;;;1.33;;
23113;SDS011;11726;50.122;8.832;2024-02-21T14:39:59;2.50;;;1.13;;
23113;SDS011;11726;50.122;8.832;2024-02-21T14:42:26;3.47;;;1.33;;
23113;SDS011;11726;50.122;8.832;2024-02-21T14:44:53;3.67;;;1.20;;
23113;SDS011;11726;50.122;8.832;2024-02-21T14:47:30;3.70;;;1.20;;